createdAt,value
2019-04-14T00:00:33.892Z,99.90
2019-04-14T00:03:04.450Z,99.90
2019-04-14T00:05:34.466Z,99.90
2019-04-14T00:08:04.529Z,99.90
2019-04-14T00:10:33.426Z,99.90
2019-04-14T00:13:02.506Z,99.90
2019-04-14T00:15:38.852Z,99.90
2019-04-14T00:18:01.255Z,99.90
2019-04-14T00:20:29.706Z,99.90
2019-04-14T00:22:58.253Z,99.90
2019-04-14T00:25:26.784Z,99.90
2019-04-14T00:27:56.244Z,99.90
2019-04-14T00:30:25.229Z,99.90
2019-04-14T00:32:59.428Z,99.90
2019-04-14T00:35:44.932Z,99.90
2019-04-14T00:38:24.271Z,99.90
2019-04-14T00:41:02.970Z,99.90
2019-04-14T00:43:33.228Z,99.90
2019-04-14T00:46:04.362Z,99.90
2019-04-14T00:48:34.094Z,99.90
2019-04-14T00:51:02.840Z,99.90
2019-04-14T00:53:31.732Z,99.90
2019-04-14T00:56:00.227Z,99.90
2019-04-14T00:58:29.985Z,99.90
2019-04-14T01:01:00.407Z,99.90
2019-04-14T01:03:28.991Z,99.90
2019-04-14T01:05:57.534Z,99.90
2019-04-14T01:08:26.795Z,99.90
2019-04-14T01:10:56.234Z,99.90
2019-04-14T01:13:24.860Z,99.90
2019-04-14T01:16:00.544Z,99.90
2019-04-14T01:18:23.539Z,99.90
2019-04-14T01:20:53.527Z,99.90
2019-04-14T01:23:22.222Z,99.90
2019-04-14T01:25:50.666Z,99.90
2019-04-14T01:28:20.150Z,99.90
2019-04-14T01:30:48.698Z,99.90
2019-04-14T01:33:18.249Z,99.90
2019-04-14T01:35:46.976Z,99.90
2019-04-14T01:38:15.483Z,99.90
2019-04-14T01:40:44.546Z,99.90
2019-04-14T01:43:14.503Z,99.90
2019-04-14T01:45:43.210Z,99.90
2019-04-14T01:48:12.691Z,99.90
2019-04-14T01:51:00.472Z,99.90
2019-04-14T01:53:31.499Z,99.90
2019-04-14T01:56:25.981Z,99.90
2019-04-14T01:58:56.096Z,99.90
2019-04-14T02:01:26.220Z,99.90
2019-04-14T02:03:54.739Z,99.90
2019-04-14T02:06:24.453Z,99.90
2019-04-14T02:08:53.113Z,99.90
2019-04-14T02:11:22.591Z,99.90
2019-04-14T02:13:51.209Z,99.90
2019-04-14T02:16:30.282Z,99.90
2019-04-14T02:18:52.236Z,99.90
2019-04-14T02:21:20.070Z,99.90
2019-04-14T02:23:49.696Z,99.90
2019-04-14T02:26:19.669Z,99.90
2019-04-14T02:28:48.335Z,99.90
2019-04-14T02:31:39.419Z,99.90
2019-04-14T02:34:15.700Z,99.90
2019-04-14T02:36:47.210Z,99.90
2019-04-14T02:39:22.385Z,99.90
2019-04-14T02:42:04.856Z,99.90
2019-04-14T02:44:23.570Z,99.90
2019-04-14T02:49:14.339Z,99.90
2019-04-14T02:51:42.506Z,99.90
2019-04-14T02:54:22.842Z,99.90
2019-04-14T02:56:43.366Z,99.90
2019-04-14T02:59:13.284Z,99.90
2019-04-14T03:01:54.324Z,99.90
2019-04-14T03:04:18.817Z,99.90
2019-04-14T03:06:50.100Z,99.90
2019-04-14T03:09:39.805Z,99.90
2019-04-14T03:11:46.246Z,99.90
2019-04-14T03:14:15.645Z,99.90
2019-04-14T03:19:44.141Z,99.90
2019-04-14T03:22:49.768Z,99.90
2019-04-14T03:25:11.501Z,99.90
2019-04-14T03:33:21.176Z,99.90
2019-04-14T03:35:50.896Z,99.90
2019-04-14T03:40:28.402Z,99.90
2019-04-14T03:43:04.019Z,99.90
2019-04-14T03:45:35.747Z,99.90
2019-04-14T03:48:31.836Z,99.90
2019-04-14T03:50:29.211Z,99.90
2019-04-14T03:55:16.365Z,99.90
2019-04-14T03:57:34.540Z,99.90
2019-04-14T04:00:05.312Z,99.90
2019-04-14T04:02:34.193Z,99.90
2019-04-14T04:05:04.137Z,99.90
2019-04-14T04:07:34.106Z,99.90
2019-04-14T04:10:05.095Z,99.90
2019-04-14T04:12:33.765Z,99.90
2019-04-14T04:15:02.523Z,99.90
2019-04-14T04:17:34.036Z,99.90
2019-04-14T04:20:17.431Z,99.90
2019-04-14T04:23:05.209Z,99.90
2019-04-14T04:28:16.769Z,99.90
2019-04-14T04:30:55.855Z,99.90
2019-04-14T04:33:32.714Z,99.90
2019-04-14T04:36:20.756Z,99.90
2019-04-14T04:39:08.634Z,99.90
2019-04-14T04:41:37.176Z,99.90
2019-04-14T04:44:05.624Z,99.90
2019-04-14T04:46:35.078Z,99.90
2019-04-14T04:49:12.767Z,99.90
2019-04-14T04:51:34.184Z,99.90
2019-04-14T04:54:03.854Z,99.90
2019-04-14T04:56:34.073Z,99.90
2019-04-14T04:59:03.309Z,99.90
2019-04-14T05:01:31.855Z,99.90
2019-04-14T05:04:00.373Z,99.90
2019-04-14T05:07:01.625Z,99.90
2019-04-14T05:09:33.806Z,99.90
2019-04-14T05:12:13.337Z,99.90
2019-04-14T05:15:03.358Z,99.90
2019-04-14T05:20:27.285Z,99.90
2019-04-14T05:22:55.786Z,99.90
2019-04-14T05:25:25.430Z,99.90
2019-04-14T05:27:54.085Z,99.90
2019-04-14T05:30:22.528Z,99.90
2019-04-14T05:32:52.164Z,99.90
2019-04-14T05:35:20.811Z,99.90
2019-04-14T05:37:49.262Z,99.90
2019-04-14T05:40:18.798Z,99.90
2019-04-14T05:42:47.448Z,99.90
2019-04-14T05:45:15.934Z,99.90
2019-04-14T05:47:45.691Z,99.90
2019-04-14T05:50:15.806Z,99.90
2019-04-14T05:52:44.838Z,99.90
2019-04-14T05:55:13.529Z,99.90
2019-04-14T05:57:42.172Z,99.90
2019-04-14T06:00:12.841Z,99.90
2019-04-14T06:02:42.004Z,99.90
2019-04-14T06:05:11.781Z,99.90
2019-04-14T06:07:41.063Z,99.90
2019-04-14T06:10:09.584Z,99.90
2019-04-14T06:12:38.139Z,99.90
2019-04-14T06:15:06.962Z,99.90
2019-04-14T06:17:35.414Z,99.90
2019-04-14T06:20:05.130Z,99.90
2019-04-14T06:22:33.571Z,99.90
2019-04-14T06:25:02.034Z,99.90
2019-04-14T06:27:30.581Z,99.90
2019-04-14T06:30:00.674Z,99.90
2019-04-14T06:32:30.780Z,99.90
2019-04-14T06:35:12.669Z,99.90
2019-04-14T06:37:48.335Z,99.90
2019-04-14T06:40:16.802Z,99.90
2019-04-14T06:42:45.294Z,99.90
2019-04-14T06:45:14.382Z,99.90
2019-04-14T06:47:42.925Z,99.90
2019-04-14T06:50:11.441Z,99.90
2019-04-14T06:52:39.923Z,99.90
2019-04-14T06:55:08.584Z,99.90
2019-04-14T06:57:37.127Z,99.90
2019-04-14T07:00:06.111Z,99.90
2019-04-14T07:02:34.686Z,99.90
2019-04-14T07:05:03.168Z,99.90
2019-04-14T07:07:31.645Z,99.90
2019-04-14T07:10:00.116Z,99.90
2019-04-14T07:12:28.553Z,99.90
2019-04-14T07:14:57.026Z,99.90
2019-04-14T07:17:25.481Z,99.90
2019-04-14T07:20:01.909Z,99.90
2019-04-14T07:22:24.195Z,99.90
2019-04-14T07:24:52.710Z,99.90
2019-04-14T07:27:21.231Z,99.90
2019-04-14T07:29:51.320Z,99.90
2019-04-14T07:32:33.508Z,99.90
2019-04-14T07:35:03.635Z,99.90
2019-04-14T07:37:51.736Z,99.90
2019-04-14T07:40:24.631Z,99.90
2019-04-14T07:43:07.606Z,99.90
2019-04-14T07:45:55.837Z,99.90
2019-04-14T07:48:28.490Z,99.90
2019-04-14T07:51:17.038Z,99.90
2019-04-14T07:53:47.260Z,99.90
2019-04-14T07:56:33.953Z,99.90
2019-04-14T07:59:06.970Z,99.90
2019-04-14T08:01:43.284Z,99.90
2019-04-14T08:04:19.574Z,99.90
2019-04-14T08:06:49.676Z,99.90
2019-04-14T08:09:18.275Z,99.90
2019-04-14T08:11:46.765Z,99.90
2019-04-14T08:14:15.482Z,99.90
2019-04-14T08:16:44.045Z,99.90
2019-04-14T08:19:12.554Z,99.90
2019-04-14T08:21:41.177Z,99.90
2019-04-14T08:24:09.624Z,99.20
2019-04-14T08:26:38.080Z,97.70
2019-04-14T08:29:06.562Z,99.10
2019-04-14T08:31:35.010Z,97.50
2019-04-14T08:34:03.558Z,96.50
2019-04-14T08:36:33.333Z,94.80
2019-04-14T08:39:21.294Z,95.10
2019-04-14T08:41:54.065Z,93.90
2019-04-14T08:44:30.375Z,92.60
2019-04-14T08:47:09.519Z,90.60
2019-04-14T08:49:42.574Z,92.70
2019-04-14T08:52:24.034Z,92.30
2019-04-14T08:54:55.990Z,90.30
2019-04-14T08:57:37.594Z,83.40
2019-04-14T09:00:08.898Z,75.60
2019-04-14T09:02:55.891Z,74.90
2019-04-14T09:05:26.343Z,78.10
2019-04-14T09:07:56.487Z,77.90
2019-04-14T09:10:38.606Z,72.40
2019-04-14T09:13:07.492Z,73.50
2019-04-14T09:15:36.280Z,73.00
2019-04-14T09:18:04.898Z,73.70
2019-04-14T09:20:33.679Z,75.00
2019-04-14T09:23:02.163Z,72.30
2019-04-14T09:25:30.978Z,70.40
2019-04-14T09:27:59.419Z,69.10
2019-04-14T09:30:27.981Z,66.80
2019-04-14T09:32:56.419Z,62.20
2019-04-14T09:35:24.971Z,60.50
2019-04-14T09:37:53.420Z,58.50
2019-04-14T09:40:22.144Z,60.70
2019-04-14T09:42:50.948Z,63.90
2019-04-14T09:45:19.753Z,59.60
2019-04-14T09:47:48.249Z,60.30
2019-04-14T09:50:16.859Z,59.80
2019-04-14T09:52:45.636Z,55.70
2019-04-14T09:55:14.447Z,52.40
2019-04-14T09:57:43.280Z,51.60
2019-04-14T10:00:14.446Z,55.60
2019-04-14T10:02:43.201Z,56.70
2019-04-14T10:05:11.643Z,59.70
2019-04-14T10:07:40.508Z,59.60
2019-04-14T10:10:09.026Z,59.00
2019-04-14T10:12:38.007Z,58.90
2019-04-14T10:15:06.891Z,58.80
2019-04-14T10:17:35.427Z,57.30
2019-04-14T10:20:04.651Z,59.30
2019-04-14T10:22:34.407Z,64.00
2019-04-14T10:25:02.995Z,63.60
2019-04-14T10:27:31.460Z,64.00
2019-04-14T10:29:59.967Z,60.80
2019-04-14T10:32:28.724Z,58.10
2019-04-14T10:34:57.522Z,59.10
2019-04-14T10:37:26.322Z,59.60
2019-04-14T10:39:55.139Z,59.60
2019-04-14T10:42:23.679Z,57.40
2019-04-14T10:44:52.127Z,58.10
2019-04-14T10:47:20.647Z,57.20
2019-04-14T10:49:49.116Z,52.70
2019-04-14T10:52:17.913Z,51.20
2019-04-14T10:54:46.723Z,53.20
2019-04-14T10:57:15.231Z,56.40
2019-04-14T10:59:43.724Z,56.90
2019-04-14T11:02:12.176Z,56.40
2019-04-14T11:04:40.631Z,60.20
2019-04-14T11:07:10.744Z,60.00
2019-04-14T11:09:39.523Z,60.80
2019-04-14T11:12:09.136Z,59.90
2019-04-14T11:14:37.949Z,59.10
2019-04-14T11:17:06.450Z,58.50
2019-04-14T11:19:34.926Z,57.50
2019-04-14T11:22:03.631Z,53.20
2019-04-14T11:24:32.432Z,54.60
2019-04-14T11:27:01.198Z,48.80
2019-04-14T11:29:30.014Z,49.60
2019-04-14T11:32:06.101Z,46.80
2019-04-14T11:34:36.524Z,44.80
2019-04-14T11:37:23.426Z,46.00
2019-04-14T11:39:51.967Z,46.00
2019-04-14T11:42:20.955Z,46.40
2019-04-14T11:44:49.962Z,48.90
2019-04-14T11:47:18.760Z,46.80
2019-04-14T11:49:47.577Z,45.70
2019-04-14T11:52:16.371Z,45.00
2019-04-14T11:54:45.373Z,45.30
2019-04-14T11:57:14.177Z,46.40
2019-04-14T11:59:47.055Z,45.70
2019-04-14T12:02:17.494Z,45.10
2019-04-14T12:04:47.649Z,43.00
2019-04-14T12:07:36.206Z,42.70
2019-04-14T12:10:07.936Z,45.40
2019-04-14T12:12:36.685Z,45.80
2019-04-14T12:15:07.702Z,45.90
2019-04-14T12:17:36.643Z,44.50
2019-04-14T12:20:06.929Z,46.00
2019-04-14T12:22:35.781Z,45.10
2019-04-14T12:25:05.639Z,47.00
2019-04-14T12:27:34.546Z,47.80
2019-04-14T12:30:06.417Z,47.30
2019-04-14T12:32:35.292Z,47.30
2019-04-14T12:35:04.491Z,48.70
2019-04-14T12:37:32.937Z,47.30
2019-04-14T12:40:02.781Z,45.10
2019-04-14T12:42:33.072Z,46.50
2019-04-14T12:45:05.862Z,46.00
2019-04-14T12:47:52.386Z,48.20
2019-04-14T12:50:28.743Z,50.10
2019-04-14T12:52:57.968Z,52.70
2019-04-14T12:55:26.978Z,53.20
2019-04-14T12:57:57.454Z,55.00
2019-04-14T13:00:27.681Z,54.00
2019-04-14T13:02:56.601Z,55.80
2019-04-14T13:05:25.111Z,55.70
2019-04-14T13:07:53.570Z,56.40
2019-04-14T13:10:22.342Z,56.10
2019-04-14T13:12:51.148Z,56.60
2019-04-14T13:15:19.939Z,54.60
2019-04-14T13:17:48.561Z,54.80
2019-04-14T13:20:17.288Z,56.10
2019-04-14T13:22:45.744Z,57.00
2019-04-14T13:25:14.532Z,57.50
2019-04-14T13:27:43.009Z,54.40
2019-04-14T13:30:13.719Z,53.50
2019-04-14T13:32:42.480Z,52.90
2019-04-14T13:35:11.044Z,53.50
2019-04-14T13:37:39.772Z,54.10
2019-04-14T13:40:08.916Z,54.70
2019-04-14T13:42:37.684Z,55.30
2019-04-14T13:45:06.771Z,57.30
2019-04-14T13:47:35.698Z,57.20
2019-04-14T13:50:07.213Z,57.20
2019-04-14T13:52:46.036Z,56.40
2019-04-14T13:55:06.604Z,53.80
2019-04-14T13:57:35.408Z,54.40
2019-04-14T14:00:06.651Z,55.80
2019-04-14T14:02:35.564Z,54.90
2019-04-14T14:05:05.191Z,55.30
2019-04-14T14:07:33.995Z,55.00
2019-04-14T14:10:02.535Z,55.10
2019-04-14T14:12:48.967Z,54.10
2019-04-14T14:15:19.056Z,55.30
2019-04-14T14:18:05.760Z,55.90
2019-04-14T14:20:52.044Z,56.70
2019-04-14T14:23:28.198Z,57.10
2019-04-14T14:26:01.540Z,54.40
2019-04-14T14:28:30.355Z,53.50
2019-04-14T14:31:00.075Z,53.00
2019-04-14T14:33:28.776Z,53.90
2019-04-14T14:35:57.587Z,51.70
2019-04-14T14:38:26.390Z,51.80
2019-04-14T14:40:56.417Z,50.70
2019-04-14T14:43:25.215Z,50.00
2019-04-14T14:45:58.736Z,48.20
2019-04-14T14:48:31.646Z,48.90
2019-04-14T14:51:05.670Z,49.10
2019-04-14T14:53:34.182Z,46.20
2019-04-14T14:56:02.700Z,44.20
2019-04-14T14:58:31.457Z,43.00
2019-04-14T15:01:00.255Z,42.40
2019-04-14T15:03:29.104Z,41.50
2019-04-14T15:05:57.577Z,43.20
2019-04-14T15:08:26.449Z,44.30
2019-04-14T15:10:54.958Z,41.50
2019-04-14T15:13:23.435Z,42.60
2019-04-14T15:15:51.901Z,41.70
2019-04-14T15:18:20.355Z,44.00
2019-04-14T15:20:49.227Z,44.40
2019-04-14T15:23:24.684Z,47.80
2019-04-14T15:25:48.206Z,51.60
2019-04-14T15:28:16.779Z,52.20
2019-04-14T15:30:45.225Z,54.60
2019-04-14T15:33:14.060Z,57.70
2019-04-14T15:35:42.960Z,59.50
2019-04-14T15:38:11.806Z,60.70
2019-04-14T15:40:40.659Z,63.50
2019-04-14T15:43:09.139Z,64.10
2019-04-14T15:45:37.597Z,65.60
2019-04-14T15:48:06.048Z,66.30
2019-04-14T15:50:34.531Z,63.40
2019-04-14T15:53:03.343Z,61.80
2019-04-14T15:55:32.143Z,57.80
2019-04-14T15:58:17.506Z,58.30
2019-04-14T16:00:47.873Z,55.00
2019-04-14T16:03:20.776Z,53.50
2019-04-14T16:05:53.844Z,51.30
2019-04-14T16:08:23.948Z,51.00
2019-04-14T16:10:54.454Z,52.00
2019-04-14T16:13:24.675Z,52.80
2019-04-14T16:16:07.007Z,54.10
2019-04-14T16:18:40.312Z,56.70
2019-04-14T16:21:09.527Z,57.00
2019-04-14T16:23:49.774Z,56.80
2019-04-14T16:26:24.986Z,55.80
2019-04-14T16:28:55.383Z,54.90
2019-04-14T16:31:37.251Z,53.70
2019-04-14T16:34:23.693Z,53.80
2019-04-14T16:36:53.146Z,54.30
2019-04-14T16:39:21.586Z,56.10
2019-04-14T16:41:50.254Z,56.50
2019-04-14T16:44:18.861Z,57.40
2019-04-14T16:46:47.651Z,58.10
2019-04-14T16:49:16.429Z,61.30
2019-04-14T16:51:50.040Z,62.00
2019-04-14T16:54:29.039Z,63.70
2019-04-14T16:57:11.200Z,65.60
2019-04-14T16:59:40.012Z,65.70
2019-04-14T17:02:10.995Z,67.50
2019-04-14T17:04:38.644Z,69.70
2019-04-14T17:07:07.085Z,69.60
2019-04-14T17:09:37.403Z,70.00
2019-04-14T17:12:06.568Z,71.20
2019-04-14T17:14:39.376Z,71.70
2019-04-14T17:17:18.612Z,74.10
2019-04-14T17:20:04.923Z,75.90
2019-04-14T17:22:43.817Z,78.70
2019-04-14T17:25:26.388Z,79.50
2019-04-14T17:27:59.146Z,83.40
2019-04-14T17:30:32.501Z,86.70
2019-04-14T17:33:08.737Z,87.90
2019-04-14T17:35:45.217Z,91.10
2019-04-14T17:38:20.835Z,92.20
2019-04-14T17:40:50.912Z,93.20
2019-04-14T17:43:36.739Z,93.90
2019-04-14T17:46:07.321Z,94.30
2019-04-14T17:48:37.499Z,94.70
2019-04-14T17:51:22.779Z,94.80
2019-04-14T17:54:07.746Z,95.00
2019-04-14T17:56:41.107Z,95.10
2019-04-14T17:59:14.004Z,95.60
2019-04-14T18:01:48.439Z,95.40
2019-04-14T18:04:18.612Z,96.10
2019-04-14T18:06:49.098Z,96.40
2019-04-14T18:09:25.392Z,96.70
2019-04-14T18:12:08.883Z,96.90
2019-04-14T18:14:39.376Z,97.40
2019-04-14T18:17:09.823Z,97.50
2019-04-14T18:19:49.137Z,97.80
2019-04-14T18:22:18.151Z,97.60
2019-04-14T18:24:46.578Z,98.30
2019-04-14T18:27:15.571Z,98.30
2019-04-14T18:29:48.795Z,98.70
2019-04-14T18:32:19.219Z,98.80
2019-04-14T18:34:49.330Z,98.80
2019-04-14T18:37:34.431Z,98.70
2019-04-14T18:40:20.507Z,99.00
2019-04-14T18:43:06.862Z,99.10
2019-04-14T18:45:36.985Z,99.00
2019-04-14T18:48:16.039Z,99.40
2019-04-14T18:51:04.255Z,99.50
2019-04-14T18:53:43.270Z,99.40
2019-04-14T18:56:13.776Z,99.70
2019-04-14T18:58:50.055Z,99.70
2019-04-14T19:01:20.170Z,99.90
2019-04-14T19:03:48.891Z,99.90
2019-04-14T19:06:17.342Z,99.90
2019-04-14T19:08:46.609Z,99.90
2019-04-14T19:11:16.678Z,99.90
2019-04-14T19:14:05.292Z,99.90
2019-04-14T19:16:39.923Z,99.90
2019-04-14T19:19:06.396Z,99.90
2019-04-14T19:21:35.199Z,99.90
2019-04-14T19:24:03.981Z,99.90
2019-04-14T19:26:32.553Z,99.90
2019-04-14T19:29:01.021Z,99.90
2019-04-14T19:31:30.088Z,99.90
2019-04-14T19:33:58.544Z,99.90
2019-04-14T19:36:27.087Z,99.90
2019-04-14T19:38:55.524Z,99.90
2019-04-14T19:41:23.976Z,99.90
2019-04-14T19:43:52.759Z,99.90
2019-04-14T19:46:21.586Z,99.90
2019-04-14T19:48:50.371Z,99.90
2019-04-14T19:51:19.534Z,99.90
2019-04-14T19:53:48.271Z,99.90
2019-04-14T19:56:17.072Z,99.90
2019-04-14T19:58:45.872Z,99.90
2019-04-14T20:01:14.675Z,99.90
2019-04-14T20:03:43.110Z,99.90
2019-04-14T20:06:11.648Z,99.90
2019-04-14T20:08:40.358Z,99.90
2019-04-14T20:11:08.882Z,99.90
2019-04-14T20:13:39.397Z,99.90
2019-04-14T20:16:25.847Z,99.90
2019-04-14T20:19:09.861Z,99.90
2019-04-14T20:21:47.008Z,99.90
2019-04-14T20:24:17.875Z,99.90
2019-04-14T20:27:04.056Z,99.90
2019-04-14T20:29:34.143Z,99.90
2019-04-14T20:32:07.578Z,99.90
2019-04-14T20:34:36.014Z,99.90
2019-04-14T20:37:04.871Z,99.90
2019-04-14T20:39:33.778Z,99.90
2019-04-14T20:42:02.587Z,99.90
2019-04-14T20:44:31.376Z,99.90
2019-04-14T20:47:00.287Z,99.90
2019-04-14T20:49:28.845Z,99.90
2019-04-14T20:51:57.784Z,99.90
2019-04-14T20:54:26.220Z,99.90
2019-04-14T20:56:54.653Z,99.90
2019-04-14T20:59:23.943Z,99.90
2019-04-14T21:02:00.368Z,99.90
2019-04-14T21:04:33.207Z,99.90
2019-04-14T21:07:12.950Z,99.90
2019-04-14T21:09:43.359Z,99.90
2019-04-14T21:12:16.399Z,99.90
2019-04-14T21:14:52.250Z,99.90
2019-04-14T21:17:28.326Z,99.90
2019-04-14T21:20:08.386Z,99.90
2019-04-14T21:22:38.806Z,99.90
2019-04-14T21:25:15.397Z,99.90
2019-04-14T21:27:45.760Z,99.90
2019-04-14T21:30:25.044Z,99.90
2019-04-14T21:32:55.424Z,99.90
2019-04-14T21:35:43.884Z,99.90
2019-04-14T21:38:23.255Z,99.90
2019-04-14T21:40:59.716Z,99.90
2019-04-14T21:43:28.521Z,99.90
2019-04-14T21:45:57.264Z,99.90
2019-04-14T21:48:26.038Z,99.90
2019-04-14T21:50:54.467Z,99.90
2019-04-14T21:53:22.933Z,99.90
2019-04-14T21:55:51.712Z,99.90
2019-04-14T21:58:38.635Z,99.90
2019-04-14T22:01:37.227Z,99.90
2019-04-14T22:04:07.576Z,99.90
2019-04-14T22:06:37.685Z,99.90
2019-04-14T22:09:08.906Z,99.90
2019-04-14T22:11:39.718Z,99.90
2019-04-14T22:14:08.519Z,99.90
2019-04-14T22:16:37.262Z,99.90
2019-04-14T22:19:06.031Z,99.90
2019-04-14T22:21:34.826Z,99.90
2019-04-14T22:24:03.346Z,99.90
2019-04-14T22:26:31.787Z,99.90
2019-04-14T22:29:02.437Z,99.90
2019-04-14T22:31:31.061Z,99.90
2019-04-14T22:33:59.499Z,99.90
2019-04-14T22:36:28.102Z,99.90
2019-04-14T22:38:56.902Z,99.90
2019-04-14T22:41:25.472Z,99.90
2019-04-14T22:43:53.911Z,99.90
2019-04-14T22:46:22.524Z,99.90
2019-04-14T22:48:51.075Z,99.90
2019-04-14T22:51:19.842Z,99.90
2019-04-14T22:53:48.475Z,99.90
2019-04-14T22:56:17.243Z,99.90
2019-04-14T22:58:46.036Z,99.90
2019-04-14T23:01:25.271Z,99.90
2019-04-14T23:04:04.624Z,99.90
2019-04-14T23:06:37.723Z,99.90
2019-04-14T23:09:23.163Z,99.90
2019-04-14T23:12:08.622Z,99.90
2019-04-14T23:14:38.700Z,99.90
2019-04-14T23:17:11.855Z,99.90
2019-04-14T23:19:48.036Z,99.90
2019-04-14T23:22:18.464Z,99.90
2019-04-14T23:24:48.650Z,99.90
2019-04-14T23:27:17.508Z,99.90
2019-04-14T23:29:46.315Z,99.90
2019-04-14T23:32:15.108Z,99.90
2019-04-14T23:34:43.912Z,99.90
2019-04-14T23:37:12.720Z,99.90
2019-04-14T23:39:41.538Z,99.90
2019-04-14T23:42:10.032Z,99.90
2019-04-14T23:44:38.899Z,99.90
2019-04-14T23:47:07.720Z,99.90
2019-04-14T23:49:36.322Z,99.90
2019-04-14T23:52:05.231Z,99.90
2019-04-14T23:54:34.011Z,99.90
2019-04-14T23:57:05.866Z,99.90
2019-04-14T23:59:32.982Z,99.90
